Wetterstation Vordersexau
Wetterdaten: Mrz 2012
Datum Temp. A. Feuchte A. Luftdruck Regen Wind Richtung Taupunkt Windchill Windben
01.03.2012 6,6 C 81 % 1021,9 hPa 0,0 l/m 0,4 km/h NO 3,5 C 6,6 C 0,2 km/h
02.03.2012 6,6 C 81 % 1023,1 hPa 0,0 l/m 0,3 km/h O-NO 3,5 C 6,6 C 0,2 km/h
03.03.2012 9,6 C 72 % 1021,2 hPa 0,0 l/m 3,7 km/h O-SO 4,3 C 8,9 C 2,1 km/h
04.03.2012 8,9 C 75 % 1018,8 hPa 0,0 l/m 1,4 km/h N-NO 4,3 C 8,6 C 0,8 km/h
05.03.2012 4,7 C 75 % 1018,7 hPa 3,6 l/m 15,9 km/h W-SW 0,6 C -0,9 C 8,8 km/h
06.03.2012 6,1 C 62 % 1021,4 hPa 0,0 l/m 3,1 km/h O-SO -1,3 C 5,2 C 1,7 km/h
07.03.2012 5,7 C 65 % 1021,7 hPa 0,0 l/m 12,2 km/h SW -0,7 C 1,8 C 6,8 km/h
08.03.2012 5,2 C 77 % 1025,1 hPa 2,5 l/m 6,8 km/h O-NO 1,3 C 2,9 C 3,8 km/h
09.03.2012 5,8 C 67 % 1034,3 hPa 0,0 l/m 1,5 km/h O-NO -0,9 C 5,5 C 0,8 km/h
10.03.2012 7,5 C 62 % 1033,3 hPa 0,0 l/m 3,1 km/h O-SO -0,2 C 6,7 C 1,7 km/h
11.03.2012 7,6 C 78 % 1030,7 hPa 0,0 l/m 2,0 km/h O-SO 3,9 C 7,1 C 1,1 km/h
12.03.2012 11,1 C 68 % 1028,7 hPa 0,0 l/m 4,0 km/h O-NO 4,9 C 10,0 C 2,2 km/h
13.03.2012 8,5 C 74 % 1028,1 hPa 0,0 l/m 1,7 km/h NO 3,7 C 8,4 C 1,0 km/h
14.03.2012 7,9 C 74 % 1027,2 hPa 0,0 l/m 1,0 km/h N-NO 3,0 C 7,7 C 0,6 km/h
15.03.2012 10,1 C 68 % 1025,7 hPa 0,0 l/m 0,7 km/h NO 3,6 C 10,1 C 0,4 km/h
16.03.2012 13,2 C 57 % 1021,0 hPa 0,0 l/m 3,5 km/h NO 3,1 C 12,8 C 2,0 km/h
17.03.2012 12,1 C 52 % 1017,4 hPa 0,0 l/m 9,7 km/h NO 1,7 C 10,1 C 5,4 km/h
18.03.2012 8,3 C 76 % 1016,3 hPa 2,8 l/m 8,1 km/h SO 4,1 C 5,8 C 4,5 km/h
19.03.2012 6,6 C 83 % 1025,5 hPa 6,8 l/m 0,5 km/h O-NO 3,9 C 6,6 C 0,3 km/h
20.03.2012 8,6 C 70 % 1031,1 hPa 0,0 l/m 2,1 km/h O-NO 2,8 C 8,3 C 1,1 km/h
21.03.2012 9,6 C 68 % 1029,9 hPa 0,0 l/m 0,6 km/h N-NO 3,2 C 9,6 C 0,3 km/h
22.03.2012 11,7 C 64 % 1025,0 hPa 0,0 l/m 1,7 km/h NO 4,4 C 11,6 C 0,9 km/h
23.03.2012 12,8 C 65 % 1022,5 hPa 0,0 l/m 2,0 km/h NO 5,7 C 12,6 C 1,1 km/h
24.03.2012 13,4 C 62 % 1022,2 hPa 0,0 l/m 3,5 km/h NO 5,3 C 12,9 C 2,0 km/h
25.03.2012 14,3 C 58 % 1025,2 hPa 0,0 l/m 2,3 km/h NO 5,0 C 14,0 C 1,3 km/h
26.03.2012 13,7 C 54 % 1028,1 hPa 0,0 l/m 1,8 km/h O-SO 2,6 C 13,5 C 1,0 km/h
27.03.2012 13,2 C 54 % 1028,4 hPa 0,0 l/m 1,2 km/h N-NO 2,7 C 13,1 C 0,7 km/h
28.03.2012 13,7 C 59 % 1025,0 hPa 0,0 l/m 2,7 km/h N-NO 4,8 C 13,5 C 1,5 km/h
29.03.2012 13,4 C 56 % 1020,2 hPa 0,0 l/m 2,0 km/h N-NO 3,2 C 13,3 C 1,1 km/h
30.03.2012 12,5 C 60 % 1017,8 hPa 0,0 l/m 1,6 km/h N-NO 4,8 C 12,1 C 0,9 km/h
31.03.2012 13,0 C 63 % 1011,9 hPa 0,0 l/m 3,3 km/h N-NO 5,6 C 12,4 C 1,8 km/h
Min-Datum 09.03.12 16.03.12 31.03.12 4 Tage 01.03.12 - 09.03.12 05.03.12 01.03.12
Min-Zeit 07:30 16:30 16:30 - 00:30 - 07:30 12:30 00:30
Minimum -2,7 C 22 % 1009,2 hPa - 0,0 km/h - -4,7 C -9,6 C 0,0 km/h
Max-Datum 16.03.12 01.03.12 09.03.12 19.03.12 05.03.12 - 25.03.12 16.03.12 05.03.12
Max-Zeit 17:30 11:30 10:30 08:30 12:30 - 12:30 17:30 12:30
Maximum 28,4 C 86 % 1035,7 hPa 6,8 l/m 60,3 km/h
W-SW
- 10,2 C 28,4 C 33,5 km/h
W-SW
Durchschnitt 9,7 C 67 % 1024,1 hPa #15,7 l/m 3,4 km/h NO 3,1 C 8,9 C 1,9 km/h

Durchschnitt Minimum Temp.2,2 C
Durchschnitt Maximum Temp.20,2 C
www.sexauwetter.de